createdAt,value
2023-05-06T00:01:50.235Z,14.93
2023-05-06T00:04:18.113Z,17.65
2023-05-06T00:06:45.303Z,18.37
2023-05-06T00:09:12.672Z,15.90
2023-05-06T00:11:40.709Z,18.02
2023-05-06T00:14:07.904Z,14.98
2023-05-06T00:16:35.303Z,13.82
2023-05-06T00:19:02.913Z,14.20
2023-05-06T00:21:30.285Z,21.25
2023-05-06T00:23:57.671Z,19.50
2023-05-06T00:26:25.190Z,23.45
2023-05-06T00:28:53.812Z,16.23
2023-05-06T00:31:21.020Z,21.40
2023-05-06T00:33:48.637Z,17.23
2023-05-06T00:36:17.530Z,17.12
2023-05-06T00:38:44.936Z,14.60
2023-05-06T00:41:12.621Z,18.05
2023-05-06T00:43:39.843Z,21.05
2023-05-06T00:46:08.873Z,13.88
2023-05-06T00:48:36.624Z,18.52
2023-05-06T00:51:04.510Z,15.95
2023-05-06T00:53:33.026Z,15.32
2023-05-06T00:56:01.059Z,18.05
2023-05-06T00:58:28.336Z,14.70
2023-05-06T01:00:55.856Z,20.95
2023-05-06T01:03:24.321Z,15.25
2023-05-06T01:05:57.446Z,12.68
2023-05-06T01:08:35.428Z,16.85
2023-05-06T01:11:07.269Z,19.65
2023-05-06T01:13:49.034Z,15.90
2023-05-06T01:16:18.634Z,14.00
2023-05-06T01:18:49.443Z,19.50
2023-05-06T01:21:17.877Z,18.12
2023-05-06T01:24:04.194Z,17.58
2023-05-06T01:26:31.659Z,24.23
2023-05-06T01:29:02.088Z,24.08
2023-05-06T01:31:40.477Z,13.70
2023-05-06T01:34:16.898Z,15.60
2023-05-06T01:37:04.737Z,13.93
2023-05-06T01:39:32.650Z,13.60
2023-05-06T01:42:02.466Z,21.58
2023-05-06T01:44:33.634Z,12.52
2023-05-06T01:47:06.150Z,13.07
2023-05-06T01:49:34.888Z,14.20
2023-05-06T01:52:02.479Z,14.87
2023-05-06T01:54:29.741Z,14.55
2023-05-06T01:56:56.936Z,14.13
2023-05-06T01:59:24.612Z,14.45
2023-05-06T02:01:52.253Z,17.33
2023-05-06T02:04:19.745Z,15.68
2023-05-06T02:06:46.977Z,16.58
2023-05-06T02:09:16.044Z,21.08
2023-05-06T02:11:44.134Z,14.23
2023-05-06T02:14:11.977Z,22.13
2023-05-06T02:16:39.227Z,18.55
2023-05-06T02:19:07.099Z,12.25
2023-05-06T02:21:34.273Z,17.25
2023-05-06T02:24:01.790Z,17.40
2023-05-06T02:26:28.931Z,14.13
2023-05-06T02:28:56.111Z,16.42
2023-05-06T02:31:23.713Z,17.35
2023-05-06T02:33:51.119Z,20.77
2023-05-06T02:36:18.227Z,16.25
2023-05-06T02:38:45.694Z,15.40
2023-05-06T02:41:12.895Z,15.48
2023-05-06T02:43:40.072Z,18.23
2023-05-06T02:46:07.778Z,23.42
2023-05-06T02:48:35.420Z,19.83
2023-05-06T02:51:03.584Z,15.70
2023-05-06T02:53:31.110Z,17.87
2023-05-06T02:55:58.279Z,22.77
2023-05-06T02:58:26.324Z,13.93
2023-05-06T03:00:53.717Z,18.27
2023-05-06T03:03:22.564Z,14.40
2023-05-06T03:05:49.727Z,17.30
2023-05-06T03:08:17.360Z,16.48
2023-05-06T03:10:44.587Z,17.23
2023-05-06T03:13:12.499Z,19.65
2023-05-06T03:15:40.134Z,17.67
2023-05-06T03:18:07.402Z,17.02
2023-05-06T03:20:34.980Z,17.30
2023-05-06T03:23:02.587Z,20.45
2023-05-06T03:25:30.436Z,13.32
2023-05-06T03:27:57.622Z,15.93
2023-05-06T03:30:25.025Z,18.62
2023-05-06T03:32:56.004Z,20.15
2023-05-06T03:35:24.073Z,16.35
2023-05-06T03:37:51.742Z,17.35
2023-05-06T03:40:19.573Z,13.43
2023-05-06T03:42:46.841Z,18.02
2023-05-06T03:45:14.683Z,17.60
2023-05-06T03:47:42.053Z,13.57
2023-05-06T03:50:10.330Z,18.02
2023-05-06T03:52:38.762Z,13.25
2023-05-06T03:55:07.050Z,21.62
2023-05-06T03:57:34.669Z,14.02
2023-05-06T04:00:02.190Z,16.40
2023-05-06T04:02:30.845Z,18.45
2023-05-06T04:04:58.857Z,16.42
2023-05-06T04:07:26.114Z,14.55
2023-05-06T04:09:53.273Z,15.77
2023-05-06T04:12:21.130Z,15.45
2023-05-06T04:14:49.037Z,14.87
2023-05-06T04:17:16.269Z,16.80
2023-05-06T04:19:43.949Z,16.02
2023-05-06T04:22:11.052Z,17.05
2023-05-06T04:24:38.535Z,13.77
2023-05-06T04:27:06.589Z,17.48
2023-05-06T04:29:33.993Z,12.98
2023-05-06T04:32:02.972Z,15.02
2023-05-06T04:34:31.299Z,26.60
2023-05-06T04:36:58.961Z,14.82
2023-05-06T04:39:26.501Z,15.30
2023-05-06T04:41:54.439Z,17.60
2023-05-06T04:44:22.481Z,14.57
2023-05-06T04:46:49.927Z,20.30
2023-05-06T04:49:17.375Z,25.15
2023-05-06T04:51:44.809Z,18.95
2023-05-06T04:54:12.148Z,20.12
2023-05-06T04:56:40.458Z,16.90
2023-05-06T04:59:08.495Z,18.48
2023-05-06T05:01:35.654Z,18.70
2023-05-06T05:04:03.267Z,15.43
2023-05-06T05:06:31.970Z,15.70
2023-05-06T05:08:59.915Z,15.88
2023-05-06T05:11:28.268Z,14.35
2023-05-06T05:13:58.899Z,13.98
2023-05-06T05:16:27.822Z,14.73
2023-05-06T05:18:55.219Z,18.50
2023-05-06T05:21:23.445Z,14.80
2023-05-06T05:23:51.035Z,16.50
2023-05-06T05:26:18.161Z,19.08
2023-05-06T05:28:45.888Z,19.37
2023-05-06T05:31:13.513Z,29.12
2023-05-06T05:33:41.253Z,27.37
2023-05-06T05:36:09.181Z,16.10
2023-05-06T05:38:37.146Z,16.10
2023-05-06T05:41:04.768Z,18.55
2023-05-06T05:43:32.518Z,16.02
2023-05-06T05:46:01.353Z,22.67
2023-05-06T05:48:32.889Z,12.45
2023-05-06T05:51:04.282Z,21.92
2023-05-06T05:53:31.811Z,16.80
2023-05-06T05:55:59.355Z,17.87
2023-05-06T05:58:27.056Z,17.00
2023-05-06T06:00:55.479Z,18.98
2023-05-06T06:03:23.110Z,16.12
2023-05-06T06:05:52.981Z,15.60
2023-05-06T06:08:20.305Z,12.40
2023-05-06T06:10:48.286Z,18.62
2023-05-06T06:13:16.045Z,17.48
2023-05-06T06:15:43.466Z,16.05
2023-05-06T06:18:10.941Z,15.32
2023-05-06T06:20:38.621Z,13.00
2023-05-06T06:23:05.931Z,9.98
2023-05-06T06:25:33.775Z,10.02
2023-05-06T06:28:00.993Z,11.85
2023-05-06T06:30:28.559Z,10.68
2023-05-06T06:32:56.706Z,14.38
2023-05-06T06:35:24.042Z,13.73
2023-05-06T06:37:51.814Z,13.57
2023-05-06T06:40:19.942Z,16.08
2023-05-06T06:42:47.967Z,10.63
2023-05-06T06:45:17.794Z,11.05
2023-05-06T06:47:45.460Z,15.98
2023-05-06T06:50:12.826Z,13.68
2023-05-06T06:52:40.257Z,10.40
2023-05-06T06:55:08.704Z,18.12
2023-05-06T06:57:37.219Z,14.85
2023-05-06T07:00:05.223Z,17.50
2023-05-06T07:02:32.794Z,15.20
2023-05-06T07:04:59.958Z,14.77
2023-05-06T07:07:27.367Z,12.48
2023-05-06T07:09:55.021Z,22.20
2023-05-06T07:12:23.893Z,11.68
2023-05-06T07:14:51.391Z,10.97
2023-05-06T07:17:18.906Z,13.35
2023-05-06T07:19:46.202Z,17.83
2023-05-06T07:22:13.513Z,14.20
2023-05-06T07:24:41.413Z,13.90
2023-05-06T07:27:08.558Z,12.73
2023-05-06T07:29:36.927Z,17.08
2023-05-06T07:32:04.649Z,11.80
2023-05-06T07:34:34.198Z,15.38
2023-05-06T07:37:01.783Z,14.85
2023-05-06T07:39:29.217Z,13.15
2023-05-06T07:41:56.351Z,14.95
2023-05-06T07:44:23.505Z,14.63
2023-05-06T07:46:51.219Z,16.33
2023-05-06T07:49:18.511Z,12.00
2023-05-06T07:51:45.781Z,11.27
2023-05-06T07:54:13.343Z,14.68
2023-05-06T07:56:40.812Z,11.80
2023-05-06T07:59:07.980Z,15.57
2023-05-06T08:01:36.149Z,14.13
2023-05-06T08:04:03.844Z,13.32
2023-05-06T08:06:32.377Z,11.52
2023-05-06T08:09:00.358Z,16.73
2023-05-06T08:11:27.822Z,14.43
2023-05-06T08:13:55.051Z,12.95
2023-05-06T08:16:25.526Z,12.80
2023-05-06T08:22:24.267Z,14.65
2023-05-06T08:24:52.040Z,11.15
2023-05-06T08:27:19.327Z,10.93
2023-05-06T08:29:46.661Z,11.45
2023-05-06T08:32:14.323Z,12.80
2023-05-06T08:34:41.559Z,12.13
2023-05-06T08:37:09.067Z,10.52
2023-05-06T08:39:36.757Z,13.65
2023-05-06T08:42:05.373Z,11.15
2023-05-06T08:44:33.765Z,11.60
2023-05-06T08:47:01.629Z,11.98
2023-05-06T08:49:29.019Z,10.98
2023-05-06T08:51:57.279Z,9.60
2023-05-06T08:54:26.145Z,11.93
2023-05-06T08:56:54.828Z,11.48
2023-05-06T09:02:52.826Z,10.35
2023-05-06T09:05:20.710Z,8.55
2023-05-06T09:07:47.920Z,17.62
2023-05-06T09:10:15.686Z,7.70
2023-05-06T09:12:43.359Z,10.15
2023-05-06T09:15:11.338Z,14.87
2023-05-06T09:17:38.869Z,11.50
2023-05-06T09:20:09.590Z,9.18
2023-05-06T09:22:38.139Z,8.52
2023-05-06T09:25:06.015Z,8.63
2023-05-06T09:27:34.830Z,20.90
2023-05-06T09:30:12.649Z,12.98
2023-05-06T09:32:41.849Z,10.85
2023-05-06T09:35:10.720Z,9.05
2023-05-06T09:37:38.091Z,8.45
2023-05-06T09:40:06.126Z,6.93
2023-05-06T09:42:34.052Z,7.15
2023-05-06T09:45:02.360Z,6.70
2023-05-06T09:47:35.130Z,8.70
2023-05-06T09:50:03.445Z,8.05
2023-05-06T09:52:31.733Z,6.57
2023-05-06T09:54:59.637Z,8.02
2023-05-06T09:57:30.847Z,13.13
2023-05-06T09:59:59.142Z,11.75
2023-05-06T10:05:46.582Z,8.23
2023-05-06T10:11:33.369Z,6.12
2023-05-06T10:14:01.759Z,11.90
2023-05-06T10:16:29.675Z,5.47
2023-05-06T10:22:46.079Z,11.27
2023-05-06T10:28:49.613Z,6.10
2023-05-06T10:31:17.396Z,3.90
2023-05-06T10:33:51.042Z,5.70
2023-05-06T10:36:20.580Z,6.07
2023-05-06T10:38:56.540Z,5.97
2023-05-06T10:45:05.242Z,6.43
2023-05-06T10:47:58.403Z,5.60
2023-05-06T10:50:26.934Z,9.57
2023-05-06T10:52:56.368Z,7.62
2023-05-06T10:55:27.361Z,3.97
2023-05-06T10:58:02.996Z,10.05
2023-05-06T11:00:34.783Z,10.45
2023-05-06T11:03:06.161Z,8.82
2023-05-06T11:05:47.602Z,7.82
2023-05-06T11:08:15.658Z,21.62
2023-05-06T11:10:42.896Z,21.87
2023-05-06T11:13:21.907Z,11.75
2023-05-06T11:21:52.352Z,10.18
2023-05-06T11:24:31.765Z,7.00
2023-05-06T11:30:29.308Z,7.65
2023-05-06T11:36:04.682Z,15.13
2023-05-06T11:38:52.810Z,9.77
2023-05-06T11:41:23.196Z,8.05
2023-05-06T11:43:52.018Z,7.62
2023-05-06T11:46:22.302Z,9.32
2023-05-06T11:48:50.847Z,6.25
2023-05-06T11:51:25.973Z,7.87
2023-05-06T11:54:07.623Z,13.75
2023-05-06T11:56:49.288Z,9.15
2023-05-06T11:59:18.721Z,6.62
2023-05-06T12:04:14.469Z,7.05
2023-05-06T12:06:41.876Z,8.13
2023-05-06T12:09:12.375Z,9.60
2023-05-06T12:11:41.618Z,6.03
2023-05-06T12:14:13.338Z,9.52
2023-05-06T12:16:41.808Z,7.10
2023-05-06T12:19:09.405Z,15.98
2023-05-06T12:21:41.931Z,8.38
2023-05-06T12:27:40.455Z,7.53
2023-05-06T12:30:09.555Z,5.50
2023-05-06T12:32:56.546Z,4.47
2023-05-06T12:35:32.512Z,6.60
2023-05-06T12:38:11.043Z,10.73
2023-05-06T12:40:39.528Z,11.43
2023-05-06T12:43:07.430Z,7.12
2023-05-06T12:45:35.030Z,4.07
2023-05-06T12:48:04.044Z,6.97
2023-05-06T12:50:43.046Z,13.27
2023-05-06T12:53:13.966Z,6.93
2023-05-06T12:55:45.468Z,5.82
2023-05-06T12:58:18.617Z,5.70
2023-05-06T13:00:46.008Z,7.53
2023-05-06T13:03:14.145Z,7.28
2023-05-06T13:05:41.748Z,6.37
2023-05-06T13:08:09.021Z,13.43
2023-05-06T13:10:36.858Z,11.30
2023-05-06T13:13:04.232Z,5.05
2023-05-06T13:15:34.752Z,6.15
2023-05-06T13:18:02.554Z,11.95
2023-05-06T13:20:31.097Z,4.60
2023-05-06T13:22:58.442Z,3.67
2023-05-06T13:25:26.069Z,10.52
2023-05-06T13:27:53.721Z,4.97
2023-05-06T13:30:21.128Z,9.88
2023-05-06T13:32:51.992Z,8.25
2023-05-06T13:35:21.654Z,5.93
2023-05-06T13:37:49.313Z,8.77
2023-05-06T13:40:16.758Z,6.37
2023-05-06T13:42:44.363Z,8.18
2023-05-06T13:45:12.141Z,7.93
2023-05-06T13:47:39.515Z,16.95
2023-05-06T13:50:07.402Z,11.27
2023-05-06T13:52:34.960Z,7.57
2023-05-06T13:55:02.258Z,11.57
2023-05-06T13:57:29.655Z,16.45
2023-05-06T13:59:57.384Z,11.18
2023-05-06T14:02:27.810Z,9.63
2023-05-06T14:04:58.312Z,9.50
2023-05-06T14:07:25.611Z,7.50
2023-05-06T14:09:53.018Z,8.57
2023-05-06T14:12:23.050Z,9.55
2023-05-06T14:14:50.328Z,8.88
2023-05-06T14:17:17.661Z,13.15
2023-05-06T14:19:45.991Z,10.80
2023-05-06T14:22:13.319Z,14.63
2023-05-06T14:24:40.683Z,8.07
2023-05-06T14:27:08.276Z,6.93
2023-05-06T14:29:35.652Z,7.07
2023-05-06T14:32:03.177Z,8.40
2023-05-06T14:34:30.843Z,8.93
2023-05-06T14:37:00.624Z,9.82
2023-05-06T14:39:28.246Z,10.27
2023-05-06T14:41:55.864Z,11.82
2023-05-06T14:44:23.118Z,16.50
2023-05-06T14:46:55.055Z,15.38
2023-05-06T14:49:22.664Z,30.75
2023-05-06T14:51:51.474Z,22.80
2023-05-06T14:54:29.355Z,13.57
2023-05-06T14:57:01.332Z,7.60
2023-05-06T14:59:28.745Z,8.55
2023-05-06T15:01:57.035Z,17.33
2023-05-06T15:04:24.894Z,16.90
2023-05-06T15:06:54.988Z,15.23
2023-05-06T15:11:51.288Z,15.52
2023-05-06T15:14:18.837Z,16.83
2023-05-06T15:16:46.297Z,25.27
2023-05-06T15:19:17.013Z,13.18
2023-05-06T15:24:14.755Z,13.90
2023-05-06T15:26:41.962Z,12.65
2023-05-06T15:29:09.187Z,16.15
2023-05-06T15:31:39.328Z,15.77
2023-05-06T15:34:08.852Z,16.60
2023-05-06T15:36:36.244Z,11.27
2023-05-06T15:39:04.508Z,15.13
2023-05-06T15:41:33.424Z,12.57
2023-05-06T15:44:02.873Z,14.98
2023-05-06T15:46:31.412Z,15.52
2023-05-06T15:49:21.175Z,10.30
2023-05-06T15:51:47.536Z,11.88
2023-05-06T15:54:18.430Z,12.55
2023-05-06T15:56:46.404Z,17.45
2023-05-06T15:59:14.237Z,10.45
2023-05-06T16:02:24.664Z,10.90
2023-05-06T16:04:30.278Z,13.75
2023-05-06T16:10:30.442Z,14.90
2023-05-06T16:12:58.000Z,15.00
2023-05-06T16:15:25.684Z,12.50
2023-05-06T16:17:53.134Z,19.77
2023-05-06T16:20:21.587Z,12.15
2023-05-06T16:22:52.610Z,33.50
2023-05-06T16:25:23.195Z,16.15
2023-05-06T16:27:51.085Z,10.60
2023-05-06T16:30:18.469Z,12.25
2023-05-06T16:32:45.881Z,12.90
2023-05-06T16:35:13.678Z,15.70
2023-05-06T16:37:43.231Z,18.37
2023-05-06T16:40:13.469Z,11.15
2023-05-06T16:42:41.195Z,8.65
2023-05-06T16:45:09.354Z,12.35
2023-05-06T16:47:37.178Z,10.15
2023-05-06T16:50:08.929Z,14.02
2023-05-06T16:55:07.418Z,11.02
2023-05-06T17:01:08.214Z,22.42
2023-05-06T17:07:14.405Z,28.38
2023-05-06T17:09:42.455Z,69.15
2023-05-06T17:12:17.434Z,42.88
2023-05-06T17:14:45.438Z,24.37
2023-05-06T17:17:12.767Z,12.27
2023-05-06T17:19:40.108Z,31.90
2023-05-06T17:22:08.297Z,55.10
2023-05-06T17:24:36.046Z,81.78
2023-05-06T17:27:04.963Z,79.37
2023-05-06T17:29:32.569Z,59.25
2023-05-06T17:31:59.909Z,31.25
2023-05-06T17:34:27.137Z,34.47
2023-05-06T17:36:54.874Z,30.35
2023-05-06T17:39:22.151Z,20.20
2023-05-06T17:41:52.948Z,18.25
2023-05-06T17:44:20.722Z,67.18
2023-05-06T17:46:48.354Z,15.57
2023-05-06T17:49:15.884Z,14.00
2023-05-06T17:55:17.387Z,16.48
2023-05-06T17:57:45.242Z,16.85
2023-05-06T18:00:13.867Z,28.52
2023-05-06T18:06:13.565Z,17.02
2023-05-06T18:08:41.107Z,22.83
2023-05-06T18:11:08.434Z,20.65
2023-05-06T18:13:36.713Z,24.05
2023-05-06T18:16:06.073Z,18.45
2023-05-06T18:18:33.586Z,17.27
2023-05-06T18:21:00.947Z,20.65
2023-05-06T18:23:29.964Z,20.00
2023-05-06T18:25:57.214Z,20.67
2023-05-06T18:28:24.533Z,22.73
2023-05-06T18:34:24.390Z,22.50
2023-05-06T18:36:51.927Z,18.50
2023-05-06T18:39:21.648Z,21.05
2023-05-06T18:41:49.034Z,17.87
2023-05-06T18:44:16.608Z,24.12
2023-05-06T18:46:43.939Z,21.30
2023-05-06T18:49:14.391Z,24.42
2023-05-06T18:51:42.020Z,16.83
2023-05-06T18:54:09.367Z,20.08
2023-05-06T18:56:37.449Z,24.95
2023-05-06T18:59:05.288Z,20.23
2023-05-06T19:01:32.579Z,17.20
2023-05-06T19:04:00.001Z,19.95
2023-05-06T19:06:27.914Z,26.75
2023-05-06T19:08:55.180Z,21.37
2023-05-06T19:11:22.611Z,27.95
2023-05-06T19:13:52.080Z,28.55
2023-05-06T19:16:19.508Z,27.40
2023-05-06T19:18:47.989Z,33.72
2023-05-06T19:21:15.964Z,33.53
2023-05-06T19:23:43.194Z,26.55
2023-05-06T19:26:11.419Z,35.65
2023-05-06T19:28:42.262Z,22.37
2023-05-06T19:31:10.671Z,23.15
2023-05-06T19:37:09.281Z,32.42
2023-05-06T19:39:36.846Z,31.08
2023-05-06T19:42:04.795Z,33.35
2023-05-06T19:44:32.114Z,28.08
2023-05-06T19:46:59.651Z,26.75
2023-05-06T19:49:26.911Z,26.23
2023-05-06T19:51:54.264Z,23.95
2023-05-06T19:54:22.490Z,25.52
2023-05-06T19:56:49.673Z,18.25
2023-05-06T19:59:17.717Z,16.23
2023-05-06T20:01:45.140Z,16.58
2023-05-06T20:04:12.781Z,13.70
2023-05-06T20:06:40.049Z,12.45
2023-05-06T20:09:07.378Z,14.07
2023-05-06T20:11:34.925Z,16.15
2023-05-06T20:14:02.154Z,15.50
2023-05-06T20:16:29.397Z,16.92
2023-05-06T20:18:57.228Z,21.75
2023-05-06T20:21:24.405Z,13.52
2023-05-06T20:23:51.693Z,13.48
2023-05-06T20:26:20.002Z,14.65
2023-05-06T20:28:47.494Z,11.12
2023-05-06T20:31:17.661Z,9.43
2023-05-06T20:33:46.189Z,12.00
2023-05-06T20:36:13.778Z,8.90
2023-05-06T20:38:41.877Z,9.57
2023-05-06T20:41:09.849Z,11.12
2023-05-06T20:43:37.048Z,12.68
2023-05-06T20:46:04.243Z,15.85
2023-05-06T20:48:32.166Z,14.57
2023-05-06T20:50:59.365Z,11.98
2023-05-06T20:53:27.367Z,11.00
2023-05-06T20:55:55.072Z,11.60
2023-05-06T20:58:22.398Z,32.58
2023-05-06T21:00:50.539Z,18.50
2023-05-06T21:03:18.151Z,15.63
2023-05-06T21:05:45.547Z,13.38
2023-05-06T21:08:12.941Z,13.55
2023-05-06T21:10:40.356Z,16.98
2023-05-06T21:16:39.813Z,21.98
2023-05-06T21:19:07.730Z,27.20
2023-05-06T21:21:35.034Z,21.20
2023-05-06T21:24:02.701Z,21.90
2023-05-06T21:26:31.299Z,24.75
2023-05-06T21:28:58.557Z,17.08
2023-05-06T21:31:26.945Z,15.85
2023-05-06T21:33:55.925Z,22.30
2023-05-06T21:36:23.325Z,19.02
2023-05-06T21:39:09.847Z,23.15
2023-05-06T21:41:37.560Z,17.17
2023-05-06T21:44:06.073Z,18.42
2023-05-06T21:46:34.962Z,19.25
2023-05-06T21:49:02.581Z,19.12
2023-05-06T21:51:34.802Z,14.65
2023-05-06T21:54:02.848Z,19.50
2023-05-06T21:56:30.384Z,17.33
2023-05-06T21:58:57.607Z,12.73
2023-05-06T22:01:26.342Z,12.10
2023-05-06T22:03:54.249Z,13.02
2023-05-06T22:06:22.501Z,13.75
2023-05-06T22:08:49.896Z,13.38
2023-05-06T22:11:17.675Z,11.43
2023-05-06T22:13:44.858Z,15.20
2023-05-06T22:16:12.487Z,14.82
2023-05-06T22:18:42.922Z,14.77
2023-05-06T22:21:10.057Z,18.30
2023-05-06T22:23:37.813Z,16.60
2023-05-06T22:26:05.296Z,15.30
2023-05-06T22:28:32.840Z,18.95
2023-05-06T22:30:59.961Z,17.52
2023-05-06T22:33:27.440Z,17.73
2023-05-06T22:35:55.575Z,17.08
2023-05-06T22:38:22.959Z,18.87
2023-05-06T22:40:50.801Z,16.17
2023-05-06T22:43:18.149Z,17.90
2023-05-06T22:45:45.274Z,16.85
2023-05-06T22:48:12.757Z,15.77
2023-05-06T22:50:39.980Z,15.63
2023-05-06T22:53:15.140Z,15.43
2023-05-06T22:55:43.182Z,17.05
2023-05-06T22:58:10.494Z,18.33
2023-05-06T23:00:37.688Z,13.23
2023-05-06T23:03:06.133Z,13.55
2023-05-06T23:05:33.415Z,14.55
2023-05-06T23:08:00.616Z,13.88
2023-05-06T23:10:28.114Z,18.80
2023-05-06T23:12:55.404Z,13.43
2023-05-06T23:15:23.113Z,15.73
2023-05-06T23:17:50.805Z,13.60
2023-05-06T23:20:17.976Z,14.57
2023-05-06T23:22:45.116Z,12.95
2023-05-06T23:25:12.881Z,16.40
2023-05-06T23:27:40.941Z,12.63
2023-05-06T23:33:37.999Z,12.93
2023-05-06T23:36:05.764Z,12.77
2023-05-06T23:38:32.841Z,11.82
2023-05-06T23:40:59.917Z,13.00
2023-05-06T23:43:27.360Z,10.70
2023-05-06T23:45:54.526Z,12.50
2023-05-06T23:48:21.689Z,11.75
2023-05-06T23:50:49.168Z,12.40
2023-05-06T23:53:16.297Z,11.55
2023-05-06T23:55:44.280Z,14.80
2023-05-06T23:58:11.791Z,10.57
